Time;durP1;ratioP1;P1;durP2;ratioP2;P2;SDS_P1;SDS_P2;PMS_P1;PMS_P2;Temp;Humidity;BMP_temperature;BMP_pressure;BME280_temperature;BME280_humidity;BME280_pressure;Samples;Min_cycle;Max_cycle;Signal;HPM_P1;HPM_P2
2022/01/15 00:00:15;;;;;;;24.48;14.27;;;1.80;99.90;;;;;;5034405;28;20065;-84
2022/01/15 00:02:42;;;;;;;20.10;14.13;;;1.90;99.90;;;;;;5034110;28;20413;-84
2022/01/15 00:05:09;;;;;;;20.75;14.27;;;1.90;99.90;;;;;;5034269;28;20076;-84
2022/01/15 00:07:36;;;;;;;20.75;13.70;;;2.00;99.90;;;;;;5035145;28;20506;-84
2022/01/15 00:10:04;;;;;;;22.27;14.40;;;2.00;99.90;;;;;;5035036;28;20132;-84
2022/01/15 00:12:38;;;;;;;21.70;13.80;;;1.90;99.90;;;;;;5034162;28;20548;-84
2022/01/15 00:15:14;;;;;;;22.52;14.38;;;1.90;99.90;;;;;;5033996;28;20167;-84
2022/01/15 00:20:14;;;;;;;21.45;14.15;;;1.90;99.90;;;;;;5035428;28;20132;-84
2022/01/15 00:22:41;;;;;;;21.92;14.20;;;1.90;99.90;;;;;;5034266;28;20139;-84
2022/01/15 00:25:08;;;;;;;22.30;14.93;;;1.90;99.90;;;;;;5034147;28;20077;-84
2022/01/15 00:27:36;;;;;;;22.60;14.38;;;1.90;99.90;;;;;;5034122;28;20072;-84
2022/01/15 00:30:04;;;;;;;23.95;14.77;;;1.90;99.90;;;;;;5034246;28;20049;-84
2022/01/15 00:32:30;;;;;;;22.58;13.65;;;1.90;99.90;;;;;;5033865;28;20136;-84
2022/01/15 00:35:00;;;;;;;25.70;15.30;;;1.90;99.90;;;;;;5035972;28;20046;-84
2022/01/15 00:37:31;;;;;;;27.33;16.00;;;1.70;99.90;;;;;;5034608;28;20099;-84
2022/01/15 00:39:59;;;;;;;28.13;15.60;;;1.60;99.90;;;;;;5034097;28;20145;-84
2022/01/15 00:42:27;;;;;;;23.27;15.68;;;1.60;99.90;;;;;;5035267;28;20073;-84
2022/01/15 00:44:55;;;;;;;22.95;14.45;;;1.70;99.90;;;;;;5034199;28;20338;-84
2022/01/15 00:47:22;;;;;;;22.08;14.55;;;1.80;99.90;;;;;;5034055;28;20128;-84
2022/01/15 00:49:49;;;;;;;24.40;13.85;;;1.80;99.90;;;;;;5033114;28;20168;-84
2022/01/15 00:52:16;;;;;;;20.33;14.23;;;1.90;99.90;;;;;;5033141;28;20168;-83
2022/01/15 00:54:43;;;;;;;21.95;13.88;;;1.90;99.90;;;;;;5032666;28;20053;-83
2022/01/15 00:57:09;;;;;;;21.15;13.93;;;1.90;99.90;;;;;;5032853;28;20049;-83
2022/01/15 00:59:36;;;;;;;21.35;13.43;;;1.90;99.90;;;;;;5032546;28;20110;-83
2022/01/15 01:02:03;;;;;;;27.40;16.17;;;1.90;99.90;;;;;;5032871;28;20080;-83
2022/01/15 01:04:30;;;;;;;32.45;16.73;;;1.80;99.90;;;;;;5032840;28;20128;-84
2022/01/15 01:06:56;;;;;;;20.70;13.70;;;1.60;99.90;;;;;;5032631;28;20124;-84
2022/01/15 01:09:28;;;;;;;26.98;15.13;;;1.70;99.90;;;;;;5032642;28;20132;-83
2022/01/15 01:11:59;;;;;;;28.00;15.70;;;1.70;99.90;;;;;;5032488;28;20140;-84
2022/01/15 01:20:08;;;;;;;27.73;14.93;;;1.80;99.90;;;;;;5033834;28;20072;-83
2022/01/15 01:22:58;;;;;;;23.77;14.25;;;1.70;99.90;;;;;;5032538;28;20120;-83
2022/01/15 01:25:28;;;;;;;22.95;14.07;;;1.80;99.90;;;;;;5033175;28;20050;-83
2022/01/15 01:28:02;;;;;;;19.50;13.18;;;1.90;99.90;;;;;;5032328;28;20151;-83
2022/01/15 01:30:36;;;;;;;25.92;14.38;;;1.90;99.90;;;;;;5032304;28;20049;-84
2022/01/15 01:36:03;;;;;;;21.42;13.75;;;1.70;99.90;;;;;;5033189;28;20136;-83
2022/01/15 01:38:35;;;;;;;21.45;12.85;;;1.80;99.90;;;;;;5032546;28;20495;-83
2022/01/15 01:41:04;;;;;;;21.52;13.27;;;1.80;99.90;;;;;;5033035;28;20046;-84
2022/01/15 01:46:15;;;;;;;20.10;12.93;;;1.90;99.90;;;;;;5033091;28;20053;-83
2022/01/15 01:48:42;;;;;;;24.45;14.18;;;1.80;99.90;;;;;;5031730;28;20049;-83
2022/01/15 01:51:21;;;;;;;25.08;14.93;;;1.70;99.90;;;;;;5031911;28;20140;-83
2022/01/15 01:53:49;;;;;;;22.55;14.38;;;1.80;99.90;;;;;;5031476;28;20084;-83
2022/01/15 01:56:16;;;;;;;23.08;14.63;;;1.80;99.90;;;;;;5031628;28;20056;-83
2022/01/15 01:58:43;;;;;;;21.33;14.45;;;1.80;99.90;;;;;;5031730;28;20482;-83
2022/01/15 02:01:10;;;;;;;20.00;12.75;;;1.90;99.90;;;;;;5032888;28;20050;-83
2022/01/15 02:03:37;;;;;;;21.92;13.73;;;1.90;99.90;;;;;;5035257;28;20490;-83
2022/01/15 02:06:05;;;;;;;19.98;13.27;;;1.90;99.90;;;;;;5036742;28;20213;-83
2022/01/15 02:08:34;;;;;;;23.35;13.77;;;1.90;99.90;;;;;;5036631;28;20042;-83
2022/01/15 02:11:06;;;;;;;29.40;15.95;;;2.00;99.90;;;;;;5035526;28;20124;-84
2022/01/15 02:13:37;;;;;;;21.52;12.98;;;1.80;99.90;;;;;;5035530;28;20136;-83
2022/01/15 02:16:04;;;;;;;20.45;13.38;;;1.70;99.90;;;;;;5035136;28;20128;-83
2022/01/15 02:18:31;;;;;;;22.98;13.80;;;1.80;99.90;;;;;;5035104;28;20046;-84
2022/01/15 02:23:44;;;;;;;21.42;14.10;;;1.60;99.90;;;;;;5036451;28;20124;-83
2022/01/15 02:26:18;;;;;;;22.33;14.40;;;1.80;99.90;;;;;;5035426;28;20128;-83
2022/01/15 02:28:51;;;;;;;20.63;13.77;;;1.70;99.90;;;;;;5034920;28;20095;-83
2022/01/15 02:31:18;;;;;;;;;;;1.80;99.90;;;;;;5036858;28;20132;-83
2022/01/15 02:33:47;;;;;;;21.25;13.80;;;1.80;99.90;;;;;;5035136;28;19975;-83
2022/01/15 02:36:16;;;;;;;24.73;14.02;;;1.70;99.90;;;;;;5035215;28;20107;-83
2022/01/15 02:38:44;;;;;;;21.73;13.73;;;1.80;99.90;;;;;;5034932;28;20565;-83
2022/01/15 02:41:11;;;;;;;21.45;13.15;;;1.80;99.90;;;;;;5035117;28;20530;-83
2022/01/15 02:43:38;;;;;;;21.85;12.90;;;1.90;99.90;;;;;;5035190;28;20136;-83
2022/01/15 02:48:00;;;;;;;20.25;11.85;;;1.90;99.90;;;;;;5035114;28;20556;-83
2022/01/15 02:49:11;;;;;;;15.70;11.20;;;1.90;99.90;;;;;;5036012;28;20056;-83
2022/01/15 02:51:37;;;;;;;20.35;12.38;;;1.90;99.90;;;;;;5034508;28;20075;-83
2022/01/15 02:54:05;;;;;;;22.85;13.38;;;1.90;99.90;;;;;;5034752;28;20085;-83
2022/01/15 02:56:38;;;;;;;21.20;13.13;;;1.90;99.90;;;;;;5036169;28;20140;-83
2022/01/15 02:59:08;;;;;;;21.42;12.70;;;1.80;99.90;;;;;;5034984;28;20049;-84
2022/01/15 03:01:35;;;;;;;22.25;13.18;;;1.80;99.90;;;;;;5034620;28;20081;-83
2022/01/15 03:04:03;;;;;;;24.08;14.02;;;1.90;99.90;;;;;;5034542;28;20116;-83
2022/01/15 03:06:30;;;;;;;18.42;12.55;;;1.90;99.90;;;;;;5034389;28;20107;-84
2022/01/15 03:08:57;;;;;;;19.10;13.15;;;1.90;99.90;;;;;;5034384;28;20467;-83
2022/01/15 03:11:24;;;;;;;23.27;13.20;;;1.90;99.90;;;;;;5034691;28;20417;-84
2022/01/15 03:13:51;;;;;;;20.48;12.35;;;2.00;99.90;;;;;;5035263;28;20403;-83
2022/01/15 03:16:21;;;;;;;16.88;10.95;;;2.00;99.90;;;;;;5034731;28;20064;-84
2022/01/15 03:18:48;;;;;;;17.60;11.60;;;2.00;99.90;;;;;;5034182;28;20293;-83
2022/01/15 03:21:16;;;;;;;21.40;12.15;;;1.90;99.90;;;;;;5034331;28;20204;-83
2022/01/15 03:23:43;;;;;;;21.50;11.80;;;1.90;99.90;;;;;;5035517;28;20046;-83
2022/01/15 03:26:13;;;;;;;24.95;13.32;;;1.90;99.90;;;;;;5036164;28;20049;-83
2022/01/15 03:28:41;;;;;;;17.08;10.85;;;1.90;99.90;;;;;;5035252;28;20430;-82
2022/01/15 03:31:08;;;;;;;16.20;10.98;;;1.90;99.90;;;;;;5033381;28;20136;-82
2022/01/15 03:33:35;;;;;;;14.40;10.48;;;2.00;99.90;;;;;;5033179;28;20045;-83
2022/01/15 03:36:06;;;;;;;23.17;12.18;;;2.00;99.90;;;;;;5033580;28;20053;-83
2022/01/15 03:38:33;;;;;;;20.88;12.20;;;1.90;99.90;;;;;;5033321;28;20132;-83
2022/01/15 03:41:00;;;;;;;19.20;11.35;;;1.80;99.90;;;;;;5033146;28;20042;-83
2022/01/15 03:43:27;;;;;;;18.85;11.27;;;1.70;99.90;;;;;;5034493;28;20132;-83
2022/01/15 03:45:54;;;;;;;15.93;11.10;;;1.80;99.90;;;;;;5034546;28;20180;-82
2022/01/15 03:48:21;;;;;;;16.85;12.18;;;1.90;99.90;;;;;;5033254;28;20049;-83
2022/01/15 03:50:47;;;;;;;21.33;11.77;;;1.90;99.90;;;;;;5032912;28;20129;-83
2022/01/15 03:53:14;;;;;;;15.80;11.07;;;1.90;99.90;;;;;;5033210;28;20561;-83
2022/01/15 03:55:41;;;;;;;18.15;11.88;;;1.90;99.90;;;;;;5033088;28;20085;-83
2022/01/15 03:58:08;;;;;;;17.20;10.63;;;1.90;99.90;;;;;;5033266;28;20111;-83
2022/01/15 04:00:35;;;;;;;16.50;10.57;;;1.80;99.90;;;;;;5033952;28;20128;-83
2022/01/15 04:03:03;;;;;;;13.93;10.15;;;1.90;99.90;;;;;;5034164;28;20119;-82
2022/01/15 04:05:31;;;;;;;15.40;11.00;;;1.90;99.90;;;;;;5032853;28;20053;-83
2022/01/15 04:07:58;;;;;;;15.55;9.95;;;1.80;99.90;;;;;;5034278;28;20049;-83
2022/01/15 04:10:24;;;;;;;13.82;9.88;;;1.80;99.90;;;;;;5033051;28;20132;-83
2022/01/15 04:12:51;;;;;;;15.82;10.57;;;1.80;99.90;;;;;;5033026;28;20081;-83
2022/01/15 04:15:20;;;;;;;13.57;9.88;;;1.80;99.90;;;;;;5032911;28;20050;-83
2022/01/15 04:17:49;;;;;;;17.80;11.45;;;1.70;99.90;;;;;;5032789;28;20136;-83
2022/01/15 04:20:19;;;;;;;18.17;10.75;;;1.70;99.90;;;;;;5034050;28;20136;-83
2022/01/15 04:22:46;;;;;;;16.52;10.55;;;1.70;99.90;;;;;;5032715;28;20144;-83
2022/01/15 04:25:13;;;;;;;16.88;11.43;;;1.80;99.90;;;;;;5033126;28;20140;-83
2022/01/15 04:27:40;;;;;;;19.45;11.73;;;1.70;99.90;;;;;;5032565;28;20132;-83
2022/01/15 04:30:08;;;;;;;22.92;11.90;;;1.70;99.90;;;;;;5032393;28;20533;-83
2022/01/15 04:32:35;;;;;;;19.73;12.77;;;1.60;99.90;;;;;;5032576;28;20053;-83
2022/01/15 04:35:02;;;;;;;21.83;12.60;;;1.70;99.90;;;;;;5032562;28;20054;-83
2022/01/15 04:37:42;;;;;;;22.60;11.55;;;1.70;99.90;;;;;;5032594;28;20061;-83
2022/01/15 04:40:09;;;;;;;19.60;11.50;;;1.80;99.90;;;;;;5032969;28;20049;-79
2022/01/15 04:42:36;;;;;;;17.05;11.75;;;1.80;99.90;;;;;;5034338;28;20543;-80
2022/01/15 04:45:07;;;;;;;22.02;12.57;;;1.80;99.90;;;;;;5032769;28;20136;-80
2022/01/15 04:47:35;;;;;;;17.10;10.95;;;1.80;99.90;;;;;;5032962;28;20045;-79
2022/01/15 04:50:08;;;;;;;16.75;10.88;;;1.70;99.90;;;;;;5032644;28;20057;-79
2022/01/15 04:52:36;;;;;;;24.40;13.18;;;1.80;99.90;;;;;;5034099;28;20084;-80
2022/01/15 04:55:04;;;;;;;22.90;11.85;;;1.70;99.90;;;;;;5032544;28;20495;-80
2022/01/15 04:57:31;;;;;;;21.48;12.55;;;1.60;99.90;;;;;;5032872;28;20064;-79
2022/01/15 04:59:58;;;;;;;20.63;11.52;;;1.60;99.90;;;;;;5032973;28;20092;-80
2022/01/15 05:02:25;;;;;;;18.73;11.98;;;1.80;99.90;;;;;;5032704;28;20414;-80
2022/01/15 05:04:52;;;;;;;16.13;10.52;;;1.70;99.90;;;;;;5035627;28;20140;-82
2022/01/15 05:07:21;;;;;;;18.13;11.25;;;1.70;99.90;;;;;;5035427;28;20566;-81
2022/01/15 05:09:48;;;;;;;18.63;11.57;;;1.80;99.90;;;;;;5035597;28;20247;-82
2022/01/15 05:15:12;;;;;;;17.52;10.85;;;1.80;99.90;;;;;;5031389;28;20136;-81
2022/01/15 05:17:40;;;;;;;16.33;10.57;;;1.90;99.90;;;;;;5036613;28;20160;-81
2022/01/15 05:20:08;;;;;;;15.25;10.25;;;1.90;99.90;;;;;;5035316;28;20132;-81
2022/01/15 05:22:35;;;;;;;13.55;9.75;;;1.90;99.90;;;;;;5035303;28;20132;-82
2022/01/15 05:25:07;;;;;;;15.77;9.98;;;1.90;99.90;;;;;;5035111;28;20132;-81
2022/01/15 05:27:40;;;;;;;16.55;9.95;;;1.90;99.90;;;;;;5035337;28;20128;-82
2022/01/15 05:30:08;;;;;;;15.32;9.93;;;1.80;99.90;;;;;;5034736;28;20079;-81
2022/01/15 05:32:35;;;;;;;13.30;9.07;;;1.90;99.90;;;;;;5035823;28;20084;-81
2022/01/15 05:35:04;;;;;;;15.30;10.27;;;1.90;99.90;;;;;;5036139;28;20073;-82
2022/01/15 05:37:31;;;;;;;13.30;9.30;;;1.90;99.90;;;;;;5037485;28;20084;-82
2022/01/15 05:39:58;;;;;;;18.10;11.23;;;2.00;99.90;;;;;;5038733;28;20060;-81
2022/01/15 05:42:25;;;;;;;15.80;10.13;;;1.90;99.90;;;;;;5039945;28;20059;-82
2022/01/15 05:44:51;;;;;;;14.82;10.18;;;1.80;99.90;;;;;;5038484;28;20125;-81
2022/01/15 05:47:21;;;;;;;15.85;10.70;;;1.80;99.90;;;;;;5038579;28;20503;-81
2022/01/15 05:49:49;;;;;;;16.02;9.73;;;1.80;99.90;;;;;;5038002;28;20120;-81
2022/01/15 05:52:15;;;;;;;18.92;10.05;;;1.80;99.90;;;;;;5038432;28;20136;-80
2022/01/15 05:54:43;;;;;;;13.88;9.95;;;1.90;99.90;;;;;;5037582;28;20566;-81
2022/01/15 05:57:10;;;;;;;17.58;11.38;;;1.80;99.90;;;;;;5037994;28;20499;-81
2022/01/15 05:59:36;;;;;;;16.27;10.90;;;1.70;99.90;;;;;;5038549;28;20091;-81
2022/01/15 06:02:07;;;;;;;14.55;10.77;;;1.70;99.90;;;;;;5037875;28;20091;-81
2022/01/15 06:04:34;;;;;;;16.95;11.23;;;1.80;99.90;;;;;;5039330;28;20417;-81
2022/01/15 06:07:01;;;;;;;19.10;10.70;;;1.70;99.90;;;;;;5039721;28;20045;-81
2022/01/15 06:09:29;;;;;;;15.23;10.30;;;1.70;99.90;;;;;;5042665;28;20172;-81
2022/01/15 06:11:56;;;;;;;15.48;9.75;;;1.70;99.90;;;;;;5037671;28;20046;-80
2022/01/15 06:14:23;;;;;;;14.13;10.32;;;1.80;99.90;;;;;;5039462;28;20145;-81
2022/01/15 06:16:49;;;;;;;17.40;10.50;;;1.80;99.90;;;;;;5037914;28;20492;-80
2022/01/15 06:19:16;;;;;;;20.33;11.10;;;1.80;99.90;;;;;;5037888;28;20068;-80
2022/01/15 06:21:43;;;;;;;15.68;10.38;;;1.80;99.90;;;;;;5039067;28;20092;-81
2022/01/15 06:24:10;;;;;;;17.33;10.80;;;1.70;99.90;;;;;;5037662;28;20124;-81
2022/01/15 06:26:37;;;;;;;14.30;10.43;;;1.80;99.90;;;;;;5038749;28;20129;-81
2022/01/15 06:29:03;;;;;;;15.88;10.75;;;1.90;99.90;;;;;;5037737;28;20461;-80
2022/01/15 06:31:31;;;;;;;18.05;10.60;;;1.90;99.90;;;;;;5036754;28;20061;-81
2022/01/15 06:34:01;;;;;;;16.13;10.60;;;2.00;99.90;;;;;;5037154;28;20553;-80
2022/01/15 06:36:28;;;;;;;15.85;10.30;;;2.00;99.90;;;;;;5037662;28;20087;-80
2022/01/15 06:38:55;;;;;;;15.43;9.93;;;2.00;99.90;;;;;;5038732;28;20137;-80
2022/01/15 06:41:24;;;;;;;14.20;9.18;;;1.90;99.90;;;;;;5037507;28;20136;-80
2022/01/15 06:43:51;;;;;;;19.88;10.10;;;1.90;99.90;;;;;;5037668;28;20041;-81
2022/01/15 06:46:18;;;;;;;15.88;10.02;;;1.90;99.90;;;;;;5037425;28;20046;-80
2022/01/15 06:48:46;;;;;;;16.65;9.77;;;1.90;99.90;;;;;;5036129;28;20049;-80
2022/01/15 06:51:13;;;;;;;15.77;9.68;;;2.00;99.90;;;;;;5037254;28;20073;-81
2022/01/15 06:53:39;;;;;;;15.00;9.75;;;2.00;99.90;;;;;;5036630;28;20049;-79
2022/01/15 06:56:07;;;;;;;14.15;9.88;;;1.90;99.90;;;;;;5037920;28;20091;-82
2022/01/15 06:58:34;;;;;;;18.35;10.35;;;1.90;99.90;;;;;;5036845;28;20144;-80
2022/01/15 07:01:01;;;;;;;15.50;9.77;;;2.00;99.90;;;;;;5036407;28;20049;-80
2022/01/15 07:03:28;;;;;;;16.88;9.02;;;2.00;99.90;;;;;;5038373;28;20053;-80
2022/01/15 07:05:55;;;;;;;18.17;10.73;;;2.00;99.90;;;;;;5036941;28;20053;-80
2022/01/15 07:08:21;;;;;;;18.83;9.60;;;2.00;99.90;;;;;;5037991;28;20138;-80
2022/01/15 07:10:48;;;;;;;21.35;12.68;;;2.00;99.90;;;;;;5037401;28;20057;-80
2022/01/15 07:13:15;;;;;;;16.67;10.13;;;1.90;99.90;;;;;;5036605;28;20140;-79
2022/01/15 07:15:42;;;;;;;15.35;10.48;;;2.00;99.90;;;;;;5036318;28;20080;-81
2022/01/15 07:18:08;;;;;;;19.00;12.93;;;2.00;99.90;;;;;;5036689;28;20050;-82
2022/01/15 07:20:35;;;;;;;22.05;13.63;;;2.00;99.90;;;;;;5036207;28;20132;-79
2022/01/15 07:23:02;;;;;;;18.50;12.52;;;1.90;99.90;;;;;;5036272;28;20136;-79
2022/01/15 07:25:28;;;;;;;22.10;12.32;;;1.90;99.90;;;;;;5036549;28;20055;-80
2022/01/15 07:27:55;;;;;;;17.00;10.93;;;2.00;99.90;;;;;;5036524;28;20046;-79
2022/01/15 07:30:22;;;;;;;23.67;12.77;;;2.00;99.90;;;;;;5037648;28;20121;-80
2022/01/15 07:32:49;;;;;;;21.90;12.60;;;2.00;99.90;;;;;;5037418;28;20507;-80
2022/01/15 07:35:16;;;;;;;22.33;11.32;;;2.00;99.90;;;;;;5036425;28;20573;-79
2022/01/15 07:37:47;;;;;;;19.48;12.00;;;1.90;99.90;;;;;;5035807;28;20091;-80
2022/01/15 07:40:14;;;;;;;21.98;13.07;;;2.10;99.90;;;;;;5036186;28;20148;-79
2022/01/15 07:42:49;;;;;;;22.20;11.93;;;2.10;99.90;;;;;;5035780;28;20136;-80
2022/01/15 07:45:17;;;;;;;17.90;11.80;;;2.00;99.90;;;;;;5035903;28;20144;-80
2022/01/15 07:47:51;;;;;;;16.13;11.48;;;2.10;99.90;;;;;;5036392;28;20060;-79
2022/01/15 07:50:23;;;;;;;19.45;12.57;;;2.20;99.90;;;;;;5036438;28;20124;-79
2022/01/15 07:53:06;;;;;;;20.25;12.98;;;2.30;99.90;;;;;;5036110;28;20136;-79
2022/01/15 07:55:33;;;;;;;18.38;13.25;;;2.40;99.90;;;;;;5036028;28;20140;-80
2022/01/15 07:58:04;;;;;;;20.65;12.95;;;2.30;99.90;;;;;;5036088;28;20474;-80
2022/01/15 08:00:32;;;;;;;16.85;11.95;;;2.30;99.90;;;;;;5034668;28;20064;-79
2022/01/15 08:02:59;;;;;;;20.33;12.35;;;2.40;99.90;;;;;;5035503;28;20520;-79
2022/01/15 08:05:26;;;;;;;16.00;11.40;;;2.50;99.90;;;;;;5035708;28;20057;-80
2022/01/15 08:07:52;;;;;;;16.52;10.48;;;2.60;99.90;;;;;;5035882;28;20045;-79
2022/01/15 08:10:39;;;;;;;16.20;12.38;;;2.60;99.90;;;;;;5035327;28;20118;-79
2022/01/15 08:13:06;;;;;;;20.30;13.93;;;2.70;99.90;;;;;;5035551;28;20084;-80
2022/01/15 08:15:38;;;;;;;24.17;15.05;;;2.80;99.90;;;;;;5036348;28;20053;-79
2022/01/15 08:18:05;;;;;;;21.85;14.48;;;2.80;99.90;;;;;;5036649;28;20117;-80
2022/01/15 08:20:32;;;;;;;24.13;13.98;;;2.80;99.90;;;;;;5034783;28;20052;-80
2022/01/15 08:22:59;;;;;;;24.73;12.88;;;2.70;99.90;;;;;;5035356;28;20095;-79
2022/01/15 08:25:27;;;;;;;18.63;10.93;;;2.80;99.90;;;;;;5036358;28;20055;-80
2022/01/15 08:27:54;;;;;;;16.90;11.35;;;2.80;99.90;;;;;;5034935;28;20549;-80
2022/01/15 08:30:22;;;;;;;18.23;11.40;;;2.90;99.90;;;;;;5035449;28;20048;-80
2022/01/15 08:32:49;;;;;;;23.55;14.68;;;3.00;99.90;;;;;;5027398;28;20059;-79
2022/01/15 08:35:39;;;;;;;19.15;13.50;;;3.00;99.90;;;;;;5035333;28;20112;-80
2022/01/15 08:38:06;;;;;;;23.38;13.52;;;3.00;99.90;;;;;;5035489;28;20132;-80
2022/01/15 08:40:36;;;;;;;16.90;11.82;;;3.00;99.90;;;;;;5035645;28;20049;-80
2022/01/15 08:43:03;;;;;;;19.95;12.50;;;2.90;99.90;;;;;;5038059;28;20084;-80
2022/01/15 08:45:30;;;;;;;16.00;9.43;;;3.10;99.90;;;;;;5035404;28;20132;-80
2022/01/15 08:48:06;;;;;;;12.27;8.95;;;3.20;99.90;;;;;;5035885;28;20050;-79
2022/01/15 08:50:33;;;;;;;11.43;7.82;;;3.20;99.90;;;;;;5034620;28;20059;-79
2022/01/15 08:53:00;;;;;;;10.57;8.00;;;3.30;99.90;;;;;;5034243;28;20085;-80
2022/01/15 08:55:46;;;;;;;8.50;6.50;;;3.40;99.90;;;;;;5034401;28;20045;-80
2022/01/15 08:58:12;;;;;;;9.43;6.20;;;3.40;99.90;;;;;;5034386;28;20099;-80
2022/01/15 09:00:39;;;;;;;9.50;6.85;;;3.50;99.90;;;;;;5034389;28;20475;-79
2022/01/15 09:03:33;;;;;;;11.38;9.02;;;3.60;99.90;;;;;;5034273;28;20049;-79
2022/01/15 09:06:00;;;;;;;14.02;10.32;;;3.70;99.90;;;;;;5034397;28;20092;-79
2022/01/15 09:08:28;;;;;;;11.45;8.00;;;3.70;99.90;;;;;;5035811;28;20045;-80
2022/01/15 09:11:12;;;;;;;13.15;8.85;;;3.70;99.90;;;;;;5033950;28;20054;-80
2022/01/15 09:13:40;;;;;;;15.85;8.77;;;3.70;99.90;;;;;;5035594;28;20124;-80
2022/01/15 09:16:07;;;;;;;12.18;9.20;;;3.70;99.90;;;;;;5035848;28;20585;-79
2022/01/15 09:18:39;;;;;;;11.63;8.90;;;3.60;99.90;;;;;;5033933;28;20140;-80
2022/01/15 09:21:06;;;;;;;15.38;11.15;;;3.70;99.90;;;;;;5033638;28;20510;-79
2022/01/15 09:23:33;;;;;;;14.98;11.55;;;3.60;99.90;;;;;;5035492;28;20479;-80
2022/01/15 09:26:21;;;;;;;19.00;11.63;;;3.80;99.90;;;;;;5034045;28;20056;-80
2022/01/15 09:31:58;;;;;;;16.95;10.13;;;4.10;99.90;;;;;;5032512;28;20053;-79
2022/01/15 09:34:26;;;;;;;14.18;9.00;;;4.20;99.90;;;;;;5035262;28;20057;-80
2022/01/15 09:36:53;;;;;;;13.98;9.02;;;4.20;99.90;;;;;;5034471;28;20483;-79
2022/01/15 09:39:37;;;;;;;14.32;9.73;;;4.10;99.90;;;;;;5033749;28;20085;-79
2022/01/15 09:42:04;;;;;;;17.00;11.70;;;4.00;99.90;;;;;;5033478;28;20080;-80
2022/01/15 09:44:33;;;;;;;15.50;11.27;;;4.00;99.90;;;;;;5033389;28;20132;-80
2022/01/15 09:47:10;;;;;;;16.75;10.00;;;4.10;99.90;;;;;;5033838;28;20050;-80
2022/01/15 09:49:38;;;;;;;13.45;9.75;;;4.20;99.90;;;;;;5033553;28;20128;-80
2022/01/15 09:52:08;;;;;;;17.20;9.50;;;4.20;99.90;;;;;;5033232;28;20049;-79
2022/01/15 09:54:34;;;;;;;12.55;8.75;;;4.00;99.90;;;;;;5033873;28;20059;-80
2022/01/15 09:57:02;;;;;;;11.75;8.77;;;4.10;99.90;;;;;;5035095;28;20457;-80
2022/01/15 09:59:29;;;;;;;13.18;9.15;;;4.30;99.90;;;;;;5033345;28;20145;-80
2022/01/15 10:01:57;;;;;;;13.35;9.35;;;4.30;99.90;;;;;;5033630;28;20056;-79
2022/01/15 10:04:24;;;;;;;12.98;8.02;;;4.30;99.90;;;;;;5033244;28;20045;-80
2022/01/15 10:07:17;;;;;;;12.75;8.07;;;4.50;99.90;;;;;;5033213;28;20534;-80
2022/01/15 10:09:45;;;;;;;11.85;8.13;;;4.50;99.90;;;;;;5034546;28;20144;-79
2022/01/15 10:12:28;;;;;;;11.85;8.98;;;4.50;99.90;;;;;;5034827;28;20140;-79
2022/01/15 10:15:00;;;;;;;18.23;9.27;;;4.60;99.90;;;;;;5033161;28;20132;-80
2022/01/15 10:17:29;;;;;;;18.90;13.55;;;4.60;99.90;;;;;;5034461;28;20471;-79
2022/01/15 10:20:21;;;;;;;18.90;15.30;;;4.60;99.90;;;;;;5033609;28;20132;-79
2022/01/15 10:22:50;;;;;;;18.77;12.85;;;4.60;99.90;;;;;;5035287;28;20148;-79
2022/01/15 10:25:33;;;;;;;13.70;9.10;;;4.50;99.90;;;;;;5036511;28;20041;-79
2022/01/15 10:28:00;;;;;;;8.85;6.93;;;4.50;99.90;;;;;;5036675;28;20121;-80
2022/01/15 10:30:31;;;;;;;7.35;6.45;;;4.60;99.90;;;;;;5037408;28;20073;-78
2022/01/15 10:33:06;;;;;;;13.40;9.20;;;4.70;99.90;;;;;;5034318;28;20107;-83
2022/01/15 10:35:43;;;;;;;9.40;7.22;;;4.70;99.90;;;;;;5054931;28;20060;-79
2022/01/15 10:38:13;;;;;;;14.07;11.93;;;4.60;99.90;;;;;;5037931;28;20136;-80
2022/01/15 10:40:42;;;;;;;19.05;13.57;;;4.40;99.90;;;;;;5033981;28;20099;-83
2022/01/15 10:43:11;;;;;;;9.63;6.70;;;4.50;99.90;;;;;;5039042;28;20096;-83
2022/01/15 10:45:55;;;;;;;7.35;6.47;;;4.60;99.90;;;;;;5040933;28;20081;-83
2022/01/15 10:48:33;;;;;;;8.80;6.43;;;4.70;99.90;;;;;;5039661;28;20042;-83
2022/01/15 10:51:03;;;;;;;14.50;7.20;;;4.80;99.90;;;;;;5039659;28;20084;-83
2022/01/15 10:53:47;;;;;;;26.02;14.63;;;4.90;99.90;;;;;;5039309;28;20103;-83
2022/01/15 10:56:15;;;;;;;12.70;8.00;;;5.10;99.90;;;;;;5039674;28;20387;-83
2022/01/15 10:58:42;;;;;;;12.95;8.30;;;5.20;99.90;;;;;;5039614;28;20077;-83
2022/01/15 11:01:14;;;;;;;22.63;12.68;;;5.20;99.90;;;;;;5039552;28;20049;-83
2022/01/15 11:03:46;;;;;;;31.42;17.95;;;5.30;99.90;;;;;;5040514;28;20437;-83
2022/01/15 11:06:12;;;;;;;8.40;6.03;;;5.10;99.90;;;;;;5041042;28;20050;-83
2022/01/15 11:08:42;;;;;;;7.57;5.90;;;4.90;99.90;;;;;;5057302;28;20069;-83
2022/01/15 11:11:13;;;;;;;7.78;5.20;;;4.80;99.90;;;;;;5042074;28;20056;-83
2022/01/15 11:13:46;;;;;;;13.00;6.28;;;4.90;99.90;;;;;;5056726;28;20572;-83
2022/01/15 11:16:15;;;;;;;7.25;5.22;;;4.90;99.90;;;;;;5057938;28;20495;-83
2022/01/15 11:18:45;;;;;;;11.80;7.03;;;5.30;99.90;;;;;;5057882;28;20041;-82
2022/01/15 11:21:19;;;;;;;4.35;2.75;;;5.10;99.90;;;;;;5057657;28;20080;-83
2022/01/15 11:23:47;;;;;;;1.40;1.23;;;5.00;99.90;;;;;;5040642;28;20049;-83
2022/01/15 11:26:16;;;;;;;1.63;1.35;;;4.90;99.90;;;;;;5055304;28;20072;-83
2022/01/15 11:28:43;;;;;;;18.63;8.73;;;5.00;99.90;;;;;;5039401;28;20329;-83
2022/01/15 11:31:13;;;;;;;3.75;2.40;;;5.10;99.90;;;;;;5038549;28;20136;-83
2022/01/15 11:33:48;;;;;;;1.30;1.20;;;5.10;99.90;;;;;;5038268;28;20137;-83
2022/01/15 11:36:42;;;;;;;0.73;0.73;;;5.30;99.90;;;;;;5040578;28;20250;-83
2022/01/15 11:39:21;;;;;;;0.43;0.43;;;5.50;99.90;;;;;;5040298;28;20119;-83
2022/01/15 11:41:52;;;;;;;0.98;0.50;;;5.80;99.90;;;;;;5038082;28;20136;-82
2022/01/15 11:44:39;;;;;;;0.68;0.52;;;5.90;99.90;;;;;;5038147;28;20451;-83
2022/01/15 11:47:18;;;;;;;0.50;0.50;;;6.00;99.90;;;;;;5039279;28;20091;-83
2022/01/15 11:49:47;;;;;;;1.27;1.27;;;6.10;99.90;;;;;;5038872;28;20081;-83
2022/01/15 11:52:14;;;;;;;0.70;0.70;;;5.80;99.90;;;;;;5039845;28;20108;-83
2022/01/15 11:55:10;;;;;;;0.43;0.43;;;5.50;99.90;;;;;;5038828;28;20113;-83
2022/01/15 11:57:48;;;;;;;0.40;0.40;;;5.40;99.90;;;;;;5034685;28;20089;-78
2022/01/15 12:00:26;;;;;;;0.60;0.60;;;5.40;99.90;;;;;;5034805;28;20587;-78
2022/01/15 12:03:17;;;;;;;0.40;0.35;;;5.60;99.90;;;;;;5035038;28;20071;-78
2022/01/15 12:05:47;;;;;;;0.50;0.50;;;5.60;99.90;;;;;;5036219;28;20049;-78
2022/01/15 12:08:13;;;;;;;0.50;0.50;;;5.70;99.90;;;;;;5034589;28;20046;-78
2022/01/15 12:11:06;;;;;;;0.60;0.60;;;5.80;99.90;;;;;;5034501;28;20156;-78
2022/01/15 12:13:48;;;;;;;0.63;0.63;;;6.10;99.90;;;;;;5035125;28;20190;-78
2022/01/15 12:16:26;;;;;;;1.25;1.15;;;6.40;99.90;;;;;;5034633;28;20085;-78
2022/01/15 12:19:10;;;;;;;1.60;0.80;;;6.60;99.90;;;;;;5034329;28;20119;-78
2022/01/15 12:22:03;;;;;;;0.60;0.60;;;6.90;99.90;;;;;;5034432;28;20073;-79
2022/01/15 12:24:39;;;;;;;0.30;0.30;;;7.10;99.90;;;;;;5034468;28;20124;-78
2022/01/15 12:27:20;;;;;;;0.28;0.28;;;6.90;99.90;;;;;;5034575;28;20107;-78
2022/01/15 12:30:06;;;;;;;17.15;12.70;;;6.90;99.90;;;;;;5034021;28;20056;-78
2022/01/15 12:32:42;;;;;;;1.40;1.40;;;6.90;99.90;;;;;;5035112;28;20068;-78
2022/01/15 12:35:15;;;;;;;0.43;0.43;;;6.80;99.90;;;;;;5034356;28;20136;-78
2022/01/15 12:38:10;;;;;;;;;;;7.00;99.90;;;;;;4975243;28;20057;-78
2022/01/15 12:40:45;;;;;;;;;;;7.20;99.90;;;;;;4959038;28;20416;-78
2022/01/15 12:43:11;;;;;;;;;;;7.10;99.90;;;;;;4958494;28;19922;-78
2022/01/15 12:45:57;;;;;;;0.20;0.20;;;7.00;99.90;;;;;;4957809;28;20045;-78
2022/01/15 12:48:26;;;;;;;19.48;2.80;;;6.60;99.90;;;;;;4973941;28;20574;-78
2022/01/15 12:51:05;;;;;;;0.43;0.43;;;6.10;99.90;;;;;;4974195;28;20086;-78
2022/01/15 12:53:49;;;;;;;0.57;0.57;;;5.60;99.90;;;;;;4974056;28;20496;-78
2022/01/15 12:56:20;;;;;;;5.63;4.55;;;5.40;99.90;;;;;;5013748;28;20136;-79
2022/01/15 12:58:55;;;;;;;2.80;2.70;;;5.20;99.90;;;;;;5035408;28;20088;-79
2022/01/15 13:01:27;;;;;;;1.73;1.63;;;5.20;99.90;;;;;;5034088;28;20128;-79
2022/01/15 13:03:54;;;;;;;1.00;1.00;;;5.20;99.90;;;;;;5033791;28;20084;-78
2022/01/15 13:06:24;;;;;;;1.20;1.20;;;5.20;99.90;;;;;;5035211;28;20486;-78
2022/01/15 13:08:59;;;;;;;45.97;32.40;;;5.10;99.90;;;;;;5034022;28;20045;-78
2022/01/15 13:11:28;;;;;;;1.60;1.50;;;5.10;99.90;;;;;;5034022;28;20091;-78
2022/01/15 13:13:57;;;;;;;3.90;1.85;;;5.10;99.90;;;;;;5033495;28;20132;-78
2022/01/15 13:16:26;;;;;;;0.70;0.70;;;5.00;99.90;;;;;;5033620;28;20049;-79
2022/01/15 13:18:58;;;;;;;0.95;0.95;;;4.80;99.90;;;;;;5033710;28;20418;-79
2022/01/15 13:21:28;;;;;;;12.73;1.73;;;4.80;99.90;;;;;;5033255;28;20052;-78